Time;durP1;ratioP1;P1;durP2;ratioP2;P2;SDS_P1;SDS_P2;PMS_P1;PMS_P2;Temp;Humidity;BMP_temperature;BMP_pressure;BME280_temperature;BME280_humidity;BME280_pressure;Samples;Min_cycle;Max_cycle;Signal;HPM_P1;HPM_P2
2022/03/22 00:01:51;;;;;;;16.17;6.68;;;;;;;;;;5076359;28;20079;-79
2022/03/22 00:04:20;;;;;;;17.13;6.90;;;;;;;;;;5077357;28;20081;-79
2022/03/22 00:06:48;;;;;;;15.70;6.40;;;;;;;;;;5086336;28;20507;-79
2022/03/22 00:09:17;;;;;;;14.85;7.00;;;;;;;;;;5088686;28;20121;-79
2022/03/22 00:11:45;;;;;;;14.07;6.78;;;;;;;;;;5084318;28;20047;-78
2022/03/22 00:14:14;;;;;;;13.88;6.53;;;;;;;;;;5089229;28;20039;-78
2022/03/22 00:16:45;;;;;;;15.45;7.30;;;;;;;;;;5087896;28;20047;-78
2022/03/22 00:19:34;;;;;;;18.83;6.97;;;;;;;;;;5084034;28;20070;-78
2022/03/22 00:22:04;;;;;;;14.00;6.28;;;;;;;;;;5080837;28;20044;-78
2022/03/22 00:24:32;;;;;;;20.95;6.50;;;;;;;;;;5084856;28;20446;-78
2022/03/22 00:27:00;;;;;;;12.80;6.20;;;;;;;;;;5089335;28;20079;-78
2022/03/22 00:29:28;;;;;;;13.00;6.25;;;;;;;;;;5074991;28;20074;-78
2022/03/22 00:31:57;;;;;;;14.60;6.72;;;;;;;;;;5087986;28;20109;-79
2022/03/22 00:34:26;;;;;;;15.20;6.80;;;;;;;;;;5089184;28;20048;-78
2022/03/22 00:36:58;;;;;;;13.45;6.50;;;;;;;;;;5084072;28;20079;-78
2022/03/22 00:39:26;;;;;;;12.48;6.30;;;;;;;;;;5087169;28;20044;-78
2022/03/22 00:41:55;;;;;;;12.48;6.18;;;;;;;;;;5077747;28;20093;-78
2022/03/22 00:44:23;;;;;;;12.90;6.00;;;;;;;;;;5090879;28;20089;-78
2022/03/22 00:46:51;;;;;;;14.57;6.28;;;;;;;;;;5082873;28;20090;-78
2022/03/22 00:49:20;;;;;;;17.45;6.90;;;;;;;;;;5086536;28;20040;-78
2022/03/22 00:51:48;;;;;;;13.60;6.90;;;;;;;;;;5089018;28;20048;-78
2022/03/22 00:54:19;;;;;;;15.80;7.07;;;;;;;;;;5082456;28;20418;-78
2022/03/22 00:56:48;;;;;;;13.55;6.80;;;;;;;;;;5082111;28;20480;-78
2022/03/22 01:02:04;;;;;;;17.17;5.97;;;;;;;;;;5078314;28;20447;-78
2022/03/22 01:04:33;;;;;;;13.75;6.47;;;;;;;;;;5085454;28;20040;-78
2022/03/22 01:07:01;;;;;;;15.10;5.88;;;;;;;;;;5085824;28;20104;-78
2022/03/22 01:09:31;;;;;;;14.52;6.72;;;;;;;;;;5088882;28;20064;-78
2022/03/22 01:11:59;;;;;;;9.55;5.38;;;;;;;;;;5086490;28;20051;-78
2022/03/22 01:14:28;;;;;;;13.55;6.03;;;;;;;;;;5093118;28;20045;-78
2022/03/22 01:16:57;;;;;;;20.83;7.00;;;;;;;;;;5081167;28;20286;-78
2022/03/22 01:19:29;;;;;;;16.13;6.25;;;;;;;;;;5084300;28;20059;-78
2022/03/22 01:21:58;;;;;;;15.15;5.80;;;;;;;;;;5078347;28;20062;-78
2022/03/22 01:24:27;;;;;;;13.93;5.85;;;;;;;;;;5078458;28;20044;-78
2022/03/22 01:26:57;;;;;;;13.85;6.28;;;;;;;;;;5077579;28;20044;-78
2022/03/22 01:29:25;;;;;;;13.65;6.32;;;;;;;;;;5087402;28;20060;-78
2022/03/22 01:31:55;;;;;;;15.85;7.15;;;;;;;;;;5085891;28;20084;-78
2022/03/22 01:34:23;;;;;;;12.23;5.88;;;;;;;;;;5087174;28;20101;-78
2022/03/22 01:36:51;;;;;;;14.18;6.55;;;;;;;;;;5081699;28;20189;-78
2022/03/22 01:39:20;;;;;;;12.93;5.53;;;;;;;;;;5077594;28;20081;-78
2022/03/22 01:41:48;;;;;;;13.98;6.68;;;;;;;;;;5074869;28;20133;-78
2022/03/22 01:44:18;;;;;;;14.32;5.60;;;;;;;;;;5082012;28;20483;-79
2022/03/22 01:46:47;;;;;;;13.30;5.78;;;;;;;;;;5077644;28;20105;-78
2022/03/22 01:49:15;;;;;;;13.43;6.35;;;;;;;;;;5076723;28;20545;-78
2022/03/22 01:51:45;;;;;;;11.80;6.15;;;;;;;;;;5079949;28;20048;-78
2022/03/22 01:54:17;;;;;;;11.65;5.75;;;;;;;;;;5065515;28;20052;-78
2022/03/22 01:56:45;;;;;;;12.77;6.57;;;;;;;;;;5087088;28;20052;-78
2022/03/22 01:59:13;;;;;;;17.88;6.97;;;;;;;;;;5085969;28;20571;-78
2022/03/22 02:07:16;;;;;;;14.88;5.47;;;;;;;;;;5086686;28;20044;-78
2022/03/22 02:09:44;;;;;;;13.18;5.82;;;;;;;;;;5076456;28;20044;-78
2022/03/22 02:12:13;;;;;;;15.07;6.22;;;;;;;;;;5080846;28;20040;-78
2022/03/22 02:14:41;;;;;;;14.07;5.93;;;;;;;;;;5085778;28;20040;-78
2022/03/22 02:17:11;;;;;;;12.38;6.05;;;;;;;;;;5074455;28;20048;-78
2022/03/22 02:19:40;;;;;;;13.38;5.90;;;;;;;;;;5083509;28;20505;-78
2022/03/22 02:22:11;;;;;;;13.80;5.78;;;;;;;;;;5078915;28;20052;-78
2022/03/22 02:24:41;;;;;;;16.25;6.80;;;;;;;;;;5085344;28;20044;-78
2022/03/22 02:27:09;;;;;;;18.98;6.38;;;;;;;;;;5091546;28;20473;-78
2022/03/22 02:29:38;;;;;;;13.82;6.13;;;;;;;;;;5084721;28;20090;-78
2022/03/22 02:32:07;;;;;;;14.88;6.60;;;;;;;;;;5083614;28;20055;-78
2022/03/22 02:34:37;;;;;;;12.00;5.93;;;;;;;;;;5080816;28;20132;-78
2022/03/22 02:37:06;;;;;;;14.07;6.25;;;;;;;;;;5076259;28;20098;-77
2022/03/22 02:39:34;;;;;;;16.05;6.10;;;;;;;;;;5077788;28;20056;-78
2022/03/22 02:42:04;;;;;;;12.20;6.35;;;;;;;;;;5081536;28;20040;-78
2022/03/22 02:44:33;;;;;;;16.88;7.05;;;;;;;;;;5084720;28;20457;-78
2022/03/22 02:47:01;;;;;;;13.43;6.32;;;;;;;;;;5089759;28;20094;-78
2022/03/22 02:49:30;;;;;;;13.27;6.28;;;;;;;;;;5085572;28;20266;-78
2022/03/22 02:52:00;;;;;;;17.15;6.95;;;;;;;;;;5078209;28;20056;-78
2022/03/22 02:54:29;;;;;;;15.73;6.47;;;;;;;;;;5087890;28;20040;-78
2022/03/22 02:56:57;;;;;;;14.65;6.00;;;;;;;;;;5089667;28;20048;-78
2022/03/22 02:59:27;;;;;;;14.23;6.38;;;;;;;;;;5089168;28;20105;-78
2022/03/22 03:01:57;;;;;;;13.07;6.53;;;;;;;;;;5080589;28;20046;-78
2022/03/22 03:04:26;;;;;;;13.75;6.10;;;;;;;;;;5086878;28;20074;-78
2022/03/22 03:06:54;;;;;;;12.70;6.68;;;;;;;;;;5088871;28;20044;-78
2022/03/22 03:09:22;;;;;;;13.88;6.13;;;;;;;;;;5079043;28;20070;-78
2022/03/22 03:11:50;;;;;;;12.95;6.43;;;;;;;;;;5080240;28;20056;-78
2022/03/22 03:17:06;;;;;;;12.80;6.30;;;;;;;;;;5079714;28;20062;-78
2022/03/22 03:19:36;;;;;;;14.23;6.10;;;;;;;;;;5082430;28;20130;-78
2022/03/22 03:22:05;;;;;;;14.50;7.00;;;;;;;;;;5088641;28;20047;-78
2022/03/22 03:24:33;;;;;;;11.55;5.75;;;;;;;;;;5080733;28;20117;-78
2022/03/22 03:27:01;;;;;;;12.80;6.53;;;;;;;;;;5090144;28;20071;-78
2022/03/22 03:29:30;;;;;;;14.02;6.88;;;;;;;;;;5076452;28;20052;-78
2022/03/22 03:31:58;;;;;;;19.73;7.30;;;;;;;;;;5089174;28;20072;-79
2022/03/22 03:34:28;;;;;;;16.27;7.00;;;;;;;;;;5086962;28;20040;-78
2022/03/22 03:36:56;;;;;;;15.57;6.80;;;;;;;;;;5087551;28;20051;-78
2022/03/22 03:39:24;;;;;;;13.68;7.22;;;;;;;;;;5088314;28;20603;-78
2022/03/22 03:41:56;;;;;;;17.02;6.28;;;;;;;;;;5081376;28;20049;-78
2022/03/22 03:47:13;;;;;;;16.27;6.53;;;;;;;;;;5081459;28;20044;-78
2022/03/22 03:49:44;;;;;;;18.50;7.32;;;;;;;;;;5084977;28;20048;-78
2022/03/22 03:52:13;;;;;;;17.85;6.90;;;;;;;;;;5079461;28;20083;-78
2022/03/22 03:54:41;;;;;;;19.08;7.65;;;;;;;;;;5081401;28;20083;-78
2022/03/22 03:57:10;;;;;;;18.10;6.50;;;;;;;;;;5084761;28;20250;-78
2022/03/22 03:59:39;;;;;;;10.07;5.60;;;;;;;;;;5085389;28;20107;-77
2022/03/22 04:02:07;;;;;;;13.45;6.30;;;;;;;;;;5079870;28;20055;-77
2022/03/22 04:04:36;;;;;;;12.88;6.15;;;;;;;;;;5088441;28;20484;-78
2022/03/22 04:07:07;;;;;;;13.45;6.20;;;;;;;;;;5090916;28;20059;-77
2022/03/22 04:09:35;;;;;;;18.40;7.70;;;;;;;;;;5075236;28;20048;-78
2022/03/22 04:12:04;;;;;;;15.18;6.03;;;;;;;;;;5080861;28;20093;-79
2022/03/22 04:14:33;;;;;;;16.67;7.03;;;;;;;;;;5077561;28;20048;-78
2022/03/22 04:17:01;;;;;;;15.65;6.00;;;;;;;;;;5082062;28;20075;-78
2022/03/22 04:19:30;;;;;;;14.32;6.03;;;;;;;;;;5086870;28;20045;-77
2022/03/22 04:21:58;;;;;;;14.55;6.40;;;;;;;;;;5086614;28;20129;-78
2022/03/22 04:24:45;;;;;;;15.23;6.28;;;;;;;;;;5082700;28;20141;-78
2022/03/22 04:33:03;;;;;;;17.08;7.53;;;;;;;;;;5083201;28;20083;-78
2022/03/22 04:35:32;;;;;;;19.40;6.53;;;;;;;;;;5080673;28;20040;-78
2022/03/22 04:38:00;;;;;;;15.32;6.70;;;;;;;;;;5091107;28;20120;-78
2022/03/22 04:40:31;;;;;;;15.27;5.50;;;;;;;;;;5086616;28;20048;-78
2022/03/22 04:43:00;;;;;;;16.20;6.25;;;;;;;;;;5087354;28;20402;-77
2022/03/22 04:45:28;;;;;;;16.98;6.97;;;;;;;;;;5077781;28;20480;-78
2022/03/22 04:47:56;;;;;;;15.77;7.68;;;;;;;;;;5084046;28;20137;-78
2022/03/22 04:50:25;;;;;;;12.25;6.28;;;;;;;;;;5079772;28;20098;-78
2022/03/22 04:58:28;;;;;;;15.07;6.25;;;;;;;;;;5086855;28;20122;-77
2022/03/22 05:00:57;;;;;;;14.75;6.40;;;;;;;;;;5084313;28;20047;-77
2022/03/22 05:03:25;;;;;;;17.10;7.25;;;;;;;;;;5081436;28;20110;-77
2022/03/22 05:08:40;;;;;;;18.08;5.55;;;;;;;;;;5076059;28;20234;-77
2022/03/22 05:11:09;;;;;;;16.42;7.00;;;;;;;;;;5081334;28;20048;-76
2022/03/22 05:13:37;;;;;;;13.40;6.13;;;;;;;;;;5083906;28;20090;-77
2022/03/22 05:16:09;;;;;;;16.00;6.85;;;;;;;;;;5081656;28;20491;-78
2022/03/22 05:18:37;;;;;;;17.63;6.50;;;;;;;;;;5082751;28;20098;-78
2022/03/22 05:21:08;;;;;;;18.52;7.00;;;;;;;;;;5083088;28;20154;-77
2022/03/22 05:23:37;;;;;;;20.20;7.28;;;;;;;;;;5084627;28;20048;-78
2022/03/22 05:26:10;;;;;;;14.15;7.25;;;;;;;;;;5074824;28;20044;-77
2022/03/22 05:28:38;;;;;;;15.02;6.93;;;;;;;;;;5075569;28;20503;-77
2022/03/22 05:31:11;;;;;;;18.05;7.07;;;;;;;;;;5079289;28;20131;-78
2022/03/22 05:33:40;;;;;;;17.50;7.28;;;;;;;;;;5087103;28;20783;-77
2022/03/22 05:36:09;;;;;;;13.77;7.20;;;;;;;;;;5086664;28;20526;-79
2022/03/22 05:38:39;;;;;;;17.40;7.28;;;;;;;;;;5077812;28;20329;-78
2022/03/22 05:41:08;;;;;;;17.75;7.43;;;;;;;;;;5084883;28;20047;-78
2022/03/22 05:43:38;;;;;;;16.90;6.82;;;;;;;;;;5081479;28;20551;-78
2022/03/22 05:46:07;;;;;;;16.98;6.47;;;;;;;;;;5079716;28;20525;-78
2022/03/22 05:48:38;;;;;;;18.92;6.95;;;;;;;;;;5078332;28;20042;-77
2022/03/22 05:51:06;;;;;;;14.00;6.50;;;;;;;;;;5078988;28;20543;-78
2022/03/22 05:53:34;;;;;;;19.05;7.53;;;;;;;;;;5075343;28;20128;-77
2022/03/22 05:56:05;;;;;;;16.05;7.28;;;;;;;;;;5078444;28;20095;-77
2022/03/22 05:58:34;;;;;;;17.73;6.13;;;;;;;;;;5072461;28;20054;-78
2022/03/22 06:01:06;;;;;;;17.50;7.43;;;;;;;;;;5085406;28;20080;-77
2022/03/22 06:03:35;;;;;;;13.07;7.07;;;;;;;;;;5073225;28;20040;-78
2022/03/22 06:06:06;;;;;;;13.32;6.78;;;;;;;;;;5074249;28;20442;-78
2022/03/22 06:08:35;;;;;;;15.07;6.88;;;;;;;;;;5074489;28;20116;-78
2022/03/22 06:11:06;;;;;;;18.27;6.68;;;;;;;;;;5085709;28;20122;-78
2022/03/22 06:13:34;;;;;;;17.25;7.03;;;;;;;;;;5080499;28;20079;-77
2022/03/22 06:16:07;;;;;;;13.48;6.70;;;;;;;;;;5076754;28;20152;-78
2022/03/22 06:18:37;;;;;;;13.88;5.72;;;;;;;;;;5081053;28;20052;-78
2022/03/22 06:21:09;;;;;;;18.23;6.72;;;;;;;;;;5084985;28;20123;-78
2022/03/22 06:23:37;;;;;;;15.07;6.22;;;;;;;;;;5075279;28;20522;-79
2022/03/22 06:26:08;;;;;;;18.13;6.97;;;;;;;;;;5079352;28;20122;-78
2022/03/22 06:28:37;;;;;;;20.08;7.22;;;;;;;;;;5079045;28;20407;-78
2022/03/22 06:31:09;;;;;;;14.15;6.50;;;;;;;;;;5076772;28;20590;-79
2022/03/22 06:33:38;;;;;;;13.40;6.63;;;;;;;;;;5077936;28;20052;-78
2022/03/22 06:36:08;;;;;;;17.08;6.57;;;;;;;;;;5078571;28;20052;-78
2022/03/22 06:38:37;;;;;;;17.65;6.38;;;;;;;;;;5078678;28;20441;-78
2022/03/22 06:41:08;;;;;;;15.52;7.07;;;;;;;;;;5072126;28;20127;-79
2022/03/22 06:43:36;;;;;;;19.55;6.97;;;;;;;;;;5078419;28;20579;-78
2022/03/22 06:46:07;;;;;;;15.70;6.65;;;;;;;;;;5079495;28;20140;-78
2022/03/22 06:48:37;;;;;;;18.65;6.82;;;;;;;;;;5084363;28;20048;-78
2022/03/22 06:51:09;;;;;;;19.90;7.25;;;;;;;;;;5079435;28;20102;-78
2022/03/22 06:53:37;;;;;;;14.85;6.80;;;;;;;;;;5077069;28;20082;-78
2022/03/22 06:56:09;;;;;;;22.40;6.90;;;;;;;;;;5086265;28;20470;-78
2022/03/22 06:58:37;;;;;;;22.10;8.18;;;;;;;;;;5073221;28;20444;-78
2022/03/22 07:01:08;;;;;;;23.65;8.48;;;;;;;;;;5071940;28;20123;-78
2022/03/22 07:03:38;;;;;;;15.68;6.50;;;;;;;;;;5087970;28;20039;-78
2022/03/22 07:06:07;;;;;;;19.48;6.43;;;;;;;;;;5081918;28;20052;-78
2022/03/22 07:08:36;;;;;;;14.50;6.97;;;;;;;;;;5075967;28;20135;-78
2022/03/22 07:13:55;;;;;;;16.85;5.35;;;;;;;;;;5063527;28;20079;-77
2022/03/22 07:16:27;;;;;;;18.15;7.63;;;;;;;;;;5091233;28;20139;-78
2022/03/22 07:18:57;;;;;;;15.63;6.43;;;;;;;;;;5087655;28;20556;-78
2022/03/22 07:21:26;;;;;;;13.00;6.25;;;;;;;;;;5103620;28;20052;-78
2022/03/22 07:23:54;;;;;;;15.93;6.70;;;;;;;;;;5089349;28;20075;-78
2022/03/22 07:26:23;;;;;;;14.27;6.47;;;;;;;;;;5087865;28;20127;-78
2022/03/22 07:28:51;;;;;;;17.52;7.00;;;;;;;;;;5088890;28;20111;-79
2022/03/22 07:31:19;;;;;;;13.07;6.07;;;;;;;;;;5082691;28;20372;-79
2022/03/22 07:33:48;;;;;;;15.65;6.93;;;;;;;;;;5087165;28;20446;-79
2022/03/22 07:36:17;;;;;;;17.17;6.72;;;;;;;;;;5094079;28;20096;-79
2022/03/22 07:39:06;;;;;;;9.95;6.20;;;;;;;;;;5086293;28;20044;-79
2022/03/22 07:41:34;;;;;;;12.43;5.95;;;;;;;;;;5085508;28;20044;-79
2022/03/22 07:44:03;;;;;;;15.82;6.20;;;;;;;;;;5087368;28;20122;-78
2022/03/22 07:46:31;;;;;;;16.30;5.50;;;;;;;;;;5086312;28;20094;-79
2022/03/22 07:52:58;;;;;;;15.38;5.75;;;;;;;;;;5082351;28;20084;-81
2022/03/22 07:54:36;;;;;;;14.48;5.53;;;;;;;;;;5083671;28;20593;-79
2022/03/22 07:57:07;;;;;;;24.20;6.35;;;;;;;;;;5084270;28;20506;-80
2022/03/22 07:59:35;;;;;;;10.82;5.57;;;;;;;;;;5085063;28;20071;-79
2022/03/22 08:02:04;;;;;;;15.30;6.03;;;;;;;;;;5081704;28;20153;-79
2022/03/22 08:04:33;;;;;;;12.85;5.90;;;;;;;;;;5089472;28;20431;-79
2022/03/22 08:07:03;;;;;;;16.02;6.28;;;;;;;;;;5083274;28;20043;-79
2022/03/22 08:09:31;;;;;;;14.98;5.65;;;;;;;;;;5088615;28;20068;-79
2022/03/22 08:12:00;;;;;;;12.27;5.40;;;;;;;;;;5076063;28;20118;-79
2022/03/22 08:14:28;;;;;;;13.95;6.03;;;;;;;;;;5090707;28;20040;-79
2022/03/22 08:16:56;;;;;;;16.83;6.40;;;;;;;;;;5087633;28;20380;-79
2022/03/22 08:19:28;;;;;;;13.48;6.22;;;;;;;;;;5093715;28;20044;-79
2022/03/22 08:21:57;;;;;;;11.32;6.50;;;;;;;;;;5090103;28;20101;-79
2022/03/22 08:24:29;;;;;;;15.50;6.55;;;;;;;;;;5085807;28;20102;-79
2022/03/22 08:26:58;;;;;;;14.77;6.93;;;;;;;;;;5090933;28;20997;-79
2022/03/22 08:29:27;;;;;;;13.98;6.03;;;;;;;;;;5082974;28;20052;-78
2022/03/22 08:31:56;;;;;;;18.08;6.78;;;;;;;;;;5089910;28;20174;-78
2022/03/22 08:34:24;;;;;;;17.42;6.57;;;;;;;;;;5083684;28;20044;-80
2022/03/22 08:36:54;;;;;;;22.70;7.03;;;;;;;;;;5091313;28;20473;-80
2022/03/22 08:39:25;;;;;;;14.07;6.50;;;;;;;;;;5090904;28;20074;-78
2022/03/22 08:41:55;;;;;;;11.60;5.78;;;;;;;;;;5088658;28;20048;-79
2022/03/22 08:44:24;;;;;;;14.85;6.55;;;;;;;;;;5082671;28;20690;-79
2022/03/22 08:46:52;;;;;;;16.33;6.90;;;;;;;;;;5084499;28;20050;-79
2022/03/22 08:49:21;;;;;;;14.40;5.90;;;;;;;;;;5088361;28;20134;-80
2022/03/22 08:51:50;;;;;;;13.85;6.63;;;;;;;;;;5080856;28;20080;-78
2022/03/22 08:54:19;;;;;;;13.65;6.07;;;;;;;;;;5086883;28;20040;-79
2022/03/22 08:56:47;;;;;;;12.15;5.90;;;;;;;;;;5091026;28;20051;-78
2022/03/22 08:59:17;;;;;;;11.60;6.25;;;;;;;;;;5079114;28;20419;-78
2022/03/22 09:01:46;;;;;;;13.35;6.68;;;;;;;;;;5085878;28;20044;-78
2022/03/22 09:07:01;;;;;;;15.52;6.20;;;;;;;;;;5081233;28;20079;-78
2022/03/22 09:09:30;;;;;;;12.15;6.05;;;;;;;;;;5087231;28;20491;-79
2022/03/22 09:11:59;;;;;;;15.68;6.70;;;;;;;;;;5086465;28;20472;-79
2022/03/22 09:14:29;;;;;;;13.00;6.47;;;;;;;;;;5079630;28;20075;-80
2022/03/22 09:16:58;;;;;;;12.52;6.45;;;;;;;;;;5079830;28;20070;-79
2022/03/22 09:19:26;;;;;;;12.15;6.15;;;;;;;;;;5089937;28;20038;-78
2022/03/22 09:22:15;;;;;;;13.85;6.10;;;;;;;;;;5080245;28;20036;-79
2022/03/22 09:24:44;;;;;;;13.07;5.95;;;;;;;;;;5086423;28;20048;-78
2022/03/22 09:27:12;;;;;;;13.88;6.60;;;;;;;;;;5080056;28;20055;-79
2022/03/22 09:29:44;;;;;;;12.88;6.00;;;;;;;;;;5079957;28;20044;-80
2022/03/22 09:32:13;;;;;;;13.25;7.05;;;;;;;;;;5086778;28;20090;-79
2022/03/22 09:34:43;;;;;;;14.48;6.70;;;;;;;;;;5084119;28;20041;-78
2022/03/22 09:37:16;;;;;;;14.23;6.53;;;;;;;;;;5086439;28;20044;-79
2022/03/22 09:39:45;;;;;;;12.45;5.72;;;;;;;;;;5078475;28;20119;-79
2022/03/22 09:42:14;;;;;;;12.73;6.13;;;;;;;;;;5083468;28;20050;-79
2022/03/22 09:44:45;;;;;;;12.38;6.30;;;;;;;;;;5076042;28;20040;-79
2022/03/22 09:47:13;;;;;;;11.23;5.90;;;;;;;;;;5074218;28;20474;-80
2022/03/22 09:49:42;;;;;;;12.05;6.57;;;;;;;;;;5080547;28;20098;-79
2022/03/22 09:52:11;;;;;;;13.45;6.18;;;;;;;;;;5085063;28;20040;-78
2022/03/22 09:54:41;;;;;;;10.80;6.07;;;;;;;;;;5088563;28;20055;-79
2022/03/22 09:57:09;;;;;;;16.27;6.28;;;;;;;;;;5081734;28;20056;-79
2022/03/22 09:59:38;;;;;;;13.50;5.78;;;;;;;;;;5083635;28;20052;-79
2022/03/22 10:02:09;;;;;;;11.30;5.80;;;;;;;;;;5087293;28;20047;-78
2022/03/22 10:04:39;;;;;;;12.40;6.45;;;;;;;;;;5087000;28;20048;-79
2022/03/22 10:07:09;;;;;;;16.30;6.93;;;;;;;;;;5082573;28;20044;-79
2022/03/22 10:09:39;;;;;;;14.43;6.50;;;;;;;;;;5081431;28;20060;-78
2022/03/22 10:12:10;;;;;;;11.15;5.90;;;;;;;;;;5081643;28;20113;-79
2022/03/22 10:14:40;;;;;;;13.55;6.60;;;;;;;;;;5075837;28;20041;-79
2022/03/22 10:17:11;;;;;;;13.02;6.43;;;;;;;;;;5081870;28;20098;-79
2022/03/22 10:19:49;;;;;;;13.07;6.45;;;;;;;;;;5088504;28;20036;-79
2022/03/22 10:22:18;;;;;;;13.13;6.45;;;;;;;;;;5082244;28;20048;-79
2022/03/22 10:24:47;;;;;;;10.05;5.97;;;;;;;;;;5089219;28;20151;-79
2022/03/22 10:27:22;;;;;;;11.18;6.68;;;;;;;;;;5085429;28;20048;-79
2022/03/22 10:30:11;;;;;;;13.23;6.57;;;;;;;;;;5077800;28;20055;-79
2022/03/22 10:32:44;;;;;;;15.48;6.82;;;;;;;;;;5078421;28;20040;-79
2022/03/22 10:35:13;;;;;;;12.20;6.82;;;;;;;;;;5080460;28;20045;-80
2022/03/22 10:37:43;;;;;;;16.98;6.82;;;;;;;;;;5076683;28;20044;-79
2022/03/22 10:40:23;;;;;;;11.20;6.25;;;;;;;;;;5086778;28;20121;-79
2022/03/22 10:42:52;;;;;;;11.02;6.68;;;;;;;;;;5091482;28;20055;-79
2022/03/22 10:45:20;;;;;;;13.98;7.22;;;;;;;;;;5088404;28;20537;-79
2022/03/22 10:47:51;;;;;;;12.20;6.93;;;;;;;;;;5079937;28;20411;-79
2022/03/22 10:50:20;;;;;;;10.50;6.28;;;;;;;;;;5083391;28;20048;-80
2022/03/22 10:52:49;;;;;;;11.77;6.57;;;;;;;;;;5088335;28;21117;-79
2022/03/22 10:55:21;;;;;;;10.77;6.80;;;;;;;;;;5092545;28;20048;-79
2022/03/22 10:57:51;;;;;;;12.40;6.97;;;;;;;;;;5080192;28;20053;-78
2022/03/22 11:00:21;;;;;;;15.13;7.20;;;;;;;;;;5089044;28;20530;-79
2022/03/22 11:02:52;;;;;;;14.90;7.13;;;;;;;;;;5086892;28;20419;-79
2022/03/22 11:05:22;;;;;;;12.23;7.30;;;;;;;;;;5091285;28;20070;-79
2022/03/22 11:07:53;;;;;;;13.65;7.88;;;;;;;;;;5079049;28;20041;-79
2022/03/22 11:10:29;;;;;;;13.75;7.30;;;;;;;;;;5080699;28;20568;-79
2022/03/22 11:12:58;;;;;;;12.55;6.63;;;;;;;;;;5081354;28;20523;-79
2022/03/22 11:15:27;;;;;;;10.18;6.93;;;;;;;;;;5091448;28;20048;-79
2022/03/22 11:17:57;;;;;;;13.32;6.10;;;;;;;;;;5096544;28;20052;-79
2022/03/22 11:20:27;;;;;;;14.15;7.43;;;;;;;;;;5083123;28;20044;-79
2022/03/22 11:22:57;;;;;;;15.63;7.47;;;;;;;;;;5082455;28;20052;-79
2022/03/22 11:25:28;;;;;;;15.32;7.53;;;;;;;;;;5087400;28;20495;-79
2022/03/22 11:27:58;;;;;;;17.15;8.05;;;;;;;;;;5075572;28;20040;-79
2022/03/22 11:30:30;;;;;;;13.50;6.85;;;;;;;;;;5086638;28;20527;-79
2022/03/22 11:35:50;;;;;;;12.30;6.68;;;;;;;;;;5088867;28;20044;-79
2022/03/22 11:38:51;;;;;;;14.07;6.95;;;;;;;;;;5087939;28;20131;-79
2022/03/22 11:44:24;;;;;;;9.63;6.50;;;;;;;;;;5049170;28;20161;-79
2022/03/22 11:47:02;;;;;;;11.70;6.07;;;;;;;;;;5073015;28;20141;-79
2022/03/22 11:49:32;;;;;;;12.80;6.78;;;;;;;;;;5089545;28;20036;-80
2022/03/22 11:52:11;;;;;;;14.52;7.00;;;;;;;;;;5091611;28;20044;-78
2022/03/22 11:54:40;;;;;;;12.13;6.57;;;;;;;;;;5086442;28;20047;-79
2022/03/22 11:57:09;;;;;;;11.32;6.65;;;;;;;;;;5081170;28;20074;-79
2022/03/22 11:59:41;;;;;;;12.82;6.63;;;;;;;;;;5090122;28;20125;-79
2022/03/22 12:02:15;;;;;;;11.57;6.35;;;;;;;;;;5084863;28;20527;-79
2022/03/22 12:04:53;;;;;;;11.85;6.80;;;;;;;;;;5084458;28;20081;-79
2022/03/22 12:07:27;;;;;;;14.45;7.03;;;;;;;;;;5087764;28;20131;-78
2022/03/22 12:10:03;;;;;;;13.20;6.32;;;;;;;;;;5085600;28;20048;-79
2022/03/22 12:12:32;;;;;;;12.60;6.80;;;;;;;;;;5076064;28;20040;-80
2022/03/22 12:15:01;;;;;;;11.88;6.90;;;;;;;;;;5080489;28;20052;-78
2022/03/22 12:17:30;;;;;;;10.93;6.13;;;;;;;;;;5084744;28;20131;-79
2022/03/22 12:20:00;;;;;;;10.18;5.70;;;;;;;;;;5085857;28;20477;-76
2022/03/22 12:22:30;;;;;;;10.38;4.90;;;;;;;;;;5075041;28;20044;-78
2022/03/22 12:24:59;;;;;;;8.95;5.30;;;;;;;;;;5089164;28;20044;-82
2022/03/22 12:27:28;;;;;;;9.10;5.55;;;;;;;;;;5083698;28;20044;-77
2022/03/22 12:29:57;;;;;;;10.15;5.85;;;;;;;;;;5086857;28;20187;-79
2022/03/22 12:32:27;;;;;;;8.60;5.63;;;;;;;;;;5074468;28;20040;-79
2022/03/22 12:34:58;;;;;;;8.50;5.10;;;;;;;;;;5082596;28;20130;-79
2022/03/22 12:37:28;;;;;;;9.02;6.18;;;;;;;;;;5090302;28;20372;-79
2022/03/22 12:39:56;;;;;;;9.95;5.88;;;;;;;;;;5078557;28;20084;-79
2022/03/22 12:42:27;;;;;;;12.90;6.47;;;;;;;;;;5080077;28;20063;-79
2022/03/22 12:44:56;;;;;;;9.77;5.78;;;;;;;;;;5082544;28;20241;-79
2022/03/22 12:47:37;;;;;;;11.35;6.50;;;;;;;;;;5086700;28;20202;-79
2022/03/22 12:50:06;;;;;;;10.63;5.95;;;;;;;;;;5085025;28;20052;-79
2022/03/22 12:52:36;;;;;;;10.48;6.20;;;;;;;;;;5080962;28;20047;-78
2022/03/22 12:55:07;;;;;;;11.30;6.30;;;;;;;;;;5080505;28;20052;-79
2022/03/22 12:57:37;;;;;;;10.93;6.13;;;;;;;;;;5083788;28;20053;-79
2022/03/22 13:00:07;;;;;;;10.70;6.28;;;;;;;;;;5084808;28;20048;-79
2022/03/22 13:02:37;;;;;;;10.45;6.20;;;;;;;;;;5084179;28;20071;-79
2022/03/22 13:05:07;;;;;;;11.05;6.20;;;;;;;;;;5084134;28;20052;-79
2022/03/22 13:07:38;;;;;;;12.63;7.00;;;;;;;;;;5079149;28;20035;-79
2022/03/22 13:12:54;;;;;;;9.00;5.75;;;;;;;;;;5081044;28;20052;-79
2022/03/22 13:15:22;;;;;;;13.57;7.05;;;;;;;;;;5083501;28;20408;-79
2022/03/22 13:17:52;;;;;;;12.05;6.40;;;;;;;;;;5073475;28;20430;-79
2022/03/22 13:20:22;;;;;;;10.75;6.75;;;;;;;;;;5080133;28;20499;-79
2022/03/22 13:22:53;;;;;;;11.00;6.43;;;;;;;;;;5080382;28;20048;-79
2022/03/22 13:25:27;;;;;;;9.90;6.43;;;;;;;;;;5085051;28;20450;-79
2022/03/22 13:27:58;;;;;;;11.70;6.07;;;;;;;;;;5079690;28;20052;-79
2022/03/22 13:30:27;;;;;;;11.48;6.53;;;;;;;;;;5077643;28;20426;-79
2022/03/22 13:33:06;;;;;;;11.30;6.28;;;;;;;;;;5075432;28;20044;-79
2022/03/22 13:35:34;;;;;;;10.57;5.93;;;;;;;;;;5083387;28;20047;-79
2022/03/22 13:38:08;;;;;;;9.48;6.10;;;;;;;;;;5085202;28;20076;-79
2022/03/22 13:40:37;;;;;;;11.15;6.18;;;;;;;;;;5082215;28;20048;-78
2022/03/22 13:43:06;;;;;;;10.75;6.38;;;;;;;;;;5078620;28;20048;-79
2022/03/22 13:45:36;;;;;;;10.10;6.18;;;;;;;;;;5087318;28;20418;-79
2022/03/22 13:48:08;;;;;;;12.48;5.95;;;;;;;;;;5084613;28;20450;-79
2022/03/22 13:50:37;;;;;;;11.35;6.85;;;;;;;;;;5076954;28;20052;-79
2022/03/22 13:53:10;;;;;;;10.13;6.05;;;;;;;;;;5083980;28;20055;-79
2022/03/22 13:55:40;;;;;;;10.88;6.53;;;;;;;;;;5079462;28;20093;-79
2022/03/22 13:58:10;;;;;;;9.60;5.82;;;;;;;;;;5082690;28;20062;-79
2022/03/22 14:00:53;;;;;;;;;;;;;;;;;;5064958;28;20492;-79
2022/03/22 14:03:23;;;;;;;9.38;5.68;;;;;;;;;;5080265;28;19925;-79
2022/03/22 14:05:53;;;;;;;7.68;4.90;;;;;;;;;;5075854;28;20052;-79
2022/03/22 14:08:23;;;;;;;7.90;5.28;;;;;;;;;;5078252;28;20041;-79
2022/03/22 14:10:54;;;;;;;6.60;4.40;;;;;;;;;;5081972;28;20052;-79
2022/03/22 14:13:23;;;;;;;11.07;4.68;;;;;;;;;;5074416;28;20129;-79
2022/03/22 14:15:53;;;;;;;6.85;4.78;;;;;;;;;;5080047;28;20108;-78
2022/03/22 14:18:22;;;;;;;7.15;4.93;;;;;;;;;;5085532;28;20056;-79
2022/03/22 14:20:51;;;;;;;9.63;4.88;;;;;;;;;;5083649;28;20052;-79
2022/03/22 14:23:20;;;;;;;6.75;4.53;;;;;;;;;;5084272;28;20044;-79
2022/03/22 14:25:50;;;;;;;8.05;4.55;;;;;;;;;;5085611;28;20044;-79
2022/03/22 14:28:20;;;;;;;6.95;4.28;;;;;;;;;;5093442;28;20067;-79
2022/03/22 14:30:49;;;;;;;5.65;3.63;;;;;;;;;;5082260;28;20487;-79
2022/03/22 14:33:18;;;;;;;6.80;4.03;;;;;;;;;;5080939;28;20097;-79
2022/03/22 14:35:47;;;;;;;7.20;4.05;;;;;;;;;;5084396;28;20397;-79
2022/03/22 14:38:16;;;;;;;7.57;4.30;;;;;;;;;;5090981;28;20044;-79
2022/03/22 14:40:45;;;;;;;6.50;3.97;;;;;;;;;;5089800;28;20059;-79
2022/03/22 14:43:19;;;;;;;7.70;4.20;;;;;;;;;;5083265;28;20410;-79
2022/03/22 14:45:48;;;;;;;6.00;4.47;;;;;;;;;;5085800;28;20047;-79
2022/03/22 14:48:21;;;;;;;7.57;4.43;;;;;;;;;;5081134;28;20134;-80
2022/03/22 14:50:50;;;;;;;5.97;3.92;;;;;;;;;;5081281;28;20059;-78
2022/03/22 14:58:56;;;;;;;6.43;3.90;;;;;;;;;;5086605;28;20432;-79
2022/03/22 15:01:25;;;;;;;7.82;4.53;;;;;;;;;;5089893;28;20102;-79
2022/03/22 15:03:54;;;;;;;8.23;3.92;;;;;;;;;;5079501;28;20068;-79
2022/03/22 15:06:25;;;;;;;6.00;3.65;;;;;;;;;;5086225;28;20052;-79
2022/03/22 15:08:54;;;;;;;5.18;3.65;;;;;;;;;;5078343;28;20052;-79
2022/03/22 15:11:23;;;;;;;4.88;3.38;;;;;;;;;;5079670;28;20047;-79
2022/03/22 15:13:52;;;;;;;5.82;3.42;;;;;;;;;;5085204;28;20502;-79
2022/03/22 15:16:22;;;;;;;6.75;3.80;;;;;;;;;;5087552;28;20040;-79
2022/03/22 15:18:53;;;;;;;6.85;3.60;;;;;;;;;;5086761;28;20249;-79
2022/03/22 15:21:26;;;;;;;6.03;3.28;;;;;;;;;;5081796;28;20055;-78
2022/03/22 15:23:54;;;;;;;7.85;3.42;;;;;;;;;;5073301;28;20508;-79
2022/03/22 15:26:23;;;;;;;6.20;3.85;;;;;;;;;;5078705;28;20538;-79
2022/03/22 15:28:52;;;;;;;6.03;3.50;;;;;;;;;;5077609;28;20052;-79
2022/03/22 15:31:20;;;;;;;9.45;2.85;;;;;;;;;;5080700;28;20072;-79
2022/03/22 15:33:56;;;;;;;5.25;3.10;;;;;;;;;;5089568;28;20052;-79
2022/03/22 15:36:24;;;;;;;4.13;2.80;;;;;;;;;;5082183;28;20472;-79
2022/03/22 15:38:52;;;;;;;4.20;2.78;;;;;;;;;;5084198;28;20056;-79